首页
METAR-TAF:

METAR-TAF

机场 :

加里, 印第安纳州, 美国

纬度: 41-37N, 经度: 087-25W, 海拔: 180米

当前天气观测

该预报发布于28分钟前的14:45 UTC
风速10节,风向南转西南
温度 24°C
湿度 61%
气压 1014 hPa
能見度: 16.1公里
多云层高于6000英尺
多云层高于11000英尺

METAR: KGYY 221445Z 20010KT 10SM BKN060 BKN110 24/16 A2994

时间: 10:13 (15:13 UTC)

预报

该预报发布于11分钟前的15:02 UTC
预报有效从22日的 15点(UTC)到 23日的 12点(UTC)
风速12节,风向西南
能見度: 10公里
散云层高于2000英尺
阴天层高于6000英尺
附近有阵雨
从 22日的 1700点(UTC)
风速15节,风向西南,有时为30节阵风
能見度: 10公里
散云层高于3500英尺
多云层高于9000英尺
从 22日的 1900点(UTC)
风速15节,风向西南,有时为25节阵风
能見度: 8.0公里
散云层高于2000英尺
阴天层高于3500英尺
阵雨, 轻雾
从 22日的 2200点(UTC)
风速13节,风向西南,有时为23节阵风
能見度: 4.8公里
阴天层高于1500英尺, 积雨云.
阵雨, 轻雾, 附近有雷暴
短暂存在
从 22日的 23点(UTC)到 23日的 01点(UTC)
能見度: 1.6公里
雷暴, 大雨, 轻雾
从 23日的 0200点(UTC)
风速11节,风向西转西南
能見度: 8.0公里
多云层高于1500英尺
小阵雨, 轻雾
从 23日的 0500点(UTC)
风速11节,风向西转西北
能見度: 10公里
散云层高于800英尺
多云层高于1000英尺
附近有阵雨
从 23日的 1000点(UTC)
风速11节,风向西转西北
能見度: 10公里
散云层高于1000英尺
多云层高于3000英尺

TAF: KGYY 221502Z 2215/2312 22012KT P6SM VCSH SCT020 OVC060 FM221700 22015G30KT P6SM SCT035 BKN090 FM221900 22015G25KT 5SM SHRA BR SCT020 OVC035 FM222200 22013G23KT 3SM SHRA BR VCTS OVC015CB TEMPO 2223/2301 1SM +TSRA BR FM230200 25011KT 5SM -SHRA BR BKN015 FM230500 29011KT P6SM VCSH SCT008 BKN010 FM231000 30011KT P6SM SCT010 BKN030

超过4000个机场的气象观测和天气预报(METAR&TAF报告)。

可查询的气象台以黄色和红色小点在地图上表示。

将鼠标移到小点上方,可查看气象台名称。

然后点击查看天气观测和预报。

如需切换地图:点击带黑十字的绿色按钮放大地图;点击带横线的绿色按钮缩小地图;或者点击绿色箭头查看邻近地区的地图。


METAR-TAF: